sensor_id;sensor_type;location;lat;lon;timestamp;P1;durP1;ratioP1;P2;durP2;ratioP2
74510;SDS011;62991;50.040;18.400;2023-04-25T00:02:59;11.95;;;4.70;;
74510;SDS011;62991;50.040;18.400;2023-04-25T00:06:00;7.75;;;3.45;;
74510;SDS011;62991;50.040;18.400;2023-04-25T00:09:04;6.53;;;3.00;;
74510;SDS011;62991;50.040;18.400;2023-04-25T00:12:07;7.20;;;2.75;;
74510;SDS011;62991;50.040;18.400;2023-04-25T00:15:08;4.90;;;2.55;;
74510;SDS011;62991;50.040;18.400;2023-04-25T00:18:09;4.60;;;2.13;;
74510;SDS011;62991;50.040;18.400;2023-04-25T00:21:11;5.00;;;2.40;;
74510;SDS011;62991;50.040;18.400;2023-04-25T00:24:12;4.10;;;2.17;;
74510;SDS011;62991;50.040;18.400;2023-04-25T00:27:12;5.13;;;2.30;;
74510;SDS011;62991;50.040;18.400;2023-04-25T00:30:13;6.60;;;2.38;;
74510;SDS011;62991;50.040;18.400;2023-04-25T00:33:14;6.65;;;2.38;;
74510;SDS011;62991;50.040;18.400;2023-04-25T00:36:15;5.03;;;2.00;;
74510;SDS011;62991;50.040;18.400;2023-04-25T00:39:15;3.78;;;2.05;;
74510;SDS011;62991;50.040;18.400;2023-04-25T00:42:16;3.28;;;1.83;;
74510;SDS011;62991;50.040;18.400;2023-04-25T00:45:17;5.63;;;2.60;;
74510;SDS011;62991;50.040;18.400;2023-04-25T00:48:18;6.03;;;2.08;;
74510;SDS011;62991;50.040;18.400;2023-04-25T00:51:21;4.88;;;2.20;;
74510;SDS011;62991;50.040;18.400;2023-04-25T00:54:22;4.82;;;2.10;;
74510;SDS011;62991;50.040;18.400;2023-04-25T00:57:23;3.72;;;2.00;;
74510;SDS011;62991;50.040;18.400;2023-04-25T01:00:24;2.90;;;1.50;;
74510;SDS011;62991;50.040;18.400;2023-04-25T01:03:24;5.75;;;2.00;;
74510;SDS011;62991;50.040;18.400;2023-04-25T01:06:28;3.58;;;1.60;;
74510;SDS011;62991;50.040;18.400;2023-04-25T01:09:30;4.10;;;1.90;;
74510;SDS011;62991;50.040;18.400;2023-04-25T01:12:32;5.70;;;2.45;;
74510;SDS011;62991;50.040;18.400;2023-04-25T01:15:32;3.90;;;2.00;;
74510;SDS011;62991;50.040;18.400;2023-04-25T01:18:36;4.32;;;1.73;;
74510;SDS011;62991;50.040;18.400;2023-04-25T01:21:38;3.40;;;1.65;;
74510;SDS011;62991;50.040;18.400;2023-04-25T01:24:40;3.42;;;1.77;;
74510;SDS011;62991;50.040;18.400;2023-04-25T01:27:41;3.13;;;1.50;;
74510;SDS011;62991;50.040;18.400;2023-04-25T01:30:42;3.85;;;1.52;;
74510;SDS011;62991;50.040;18.400;2023-04-25T01:33:43;2.58;;;1.40;;
74510;SDS011;62991;50.040;18.400;2023-04-25T01:36:44;1.88;;;0.98;;
74510;SDS011;62991;50.040;18.400;2023-04-25T01:39:46;1.92;;;1.10;;
74510;SDS011;62991;50.040;18.400;2023-04-25T01:42:48;1.73;;;1.00;;
74510;SDS011;62991;50.040;18.400;2023-04-25T01:45:50;3.08;;;1.45;;
74510;SDS011;62991;50.040;18.400;2023-04-25T01:48:51;2.33;;;1.20;;
74510;SDS011;62991;50.040;18.400;2023-04-25T01:51:52;2.65;;;1.23;;
74510;SDS011;62991;50.040;18.400;2023-04-25T01:54:53;2.20;;;1.30;;
74510;SDS011;62991;50.040;18.400;2023-04-25T01:57:54;2.45;;;1.10;;
74510;SDS011;62991;50.040;18.400;2023-04-25T02:00:55;3.95;;;1.17;;
74510;SDS011;62991;50.040;18.400;2023-04-25T02:03:56;1.88;;;0.90;;
74510;SDS011;62991;50.040;18.400;2023-04-25T02:06:56;2.33;;;1.15;;
74510;SDS011;62991;50.040;18.400;2023-04-25T02:09:57;1.50;;;1.10;;
74510;SDS011;62991;50.040;18.400;2023-04-25T02:12:58;2.55;;;1.02;;
74510;SDS011;62991;50.040;18.400;2023-04-25T02:15:58;3.10;;;1.30;;
74510;SDS011;62991;50.040;18.400;2023-04-25T02:18:59;2.63;;;1.25;;
74510;SDS011;62991;50.040;18.400;2023-04-25T02:22:00;1.52;;;1.10;;
74510;SDS011;62991;50.040;18.400;2023-04-25T02:25:01;2.38;;;1.25;;
74510;SDS011;62991;50.040;18.400;2023-04-25T02:28:04;2.15;;;1.10;;
74510;SDS011;62991;50.040;18.400;2023-04-25T02:31:05;2.28;;;1.10;;
74510;SDS011;62991;50.040;18.400;2023-04-25T02:34:05;2.10;;;1.10;;
74510;SDS011;62991;50.040;18.400;2023-04-25T02:37:06;3.65;;;1.70;;
74510;SDS011;62991;50.040;18.400;2023-04-25T02:40:07;3.92;;;1.20;;
74510;SDS011;62991;50.040;18.400;2023-04-25T02:43:08;3.22;;;1.48;;
74510;SDS011;62991;50.040;18.400;2023-04-25T02:46:09;4.15;;;1.27;;
74510;SDS011;62991;50.040;18.400;2023-04-25T02:49:09;2.42;;;1.02;;
74510;SDS011;62991;50.040;18.400;2023-04-25T02:52:10;2.63;;;1.30;;
74510;SDS011;62991;50.040;18.400;2023-04-25T02:55:12;3.53;;;0.95;;
74510;SDS011;62991;50.040;18.400;2023-04-25T02:58:13;4.80;;;1.60;;
74510;SDS011;62991;50.040;18.400;2023-04-25T03:01:15;2.72;;;1.60;;
74510;SDS011;62991;50.040;18.400;2023-04-25T03:04:16;4.35;;;1.40;;
74510;SDS011;62991;50.040;18.400;2023-04-25T03:07:18;2.75;;;1.27;;
74510;SDS011;62991;50.040;18.400;2023-04-25T03:10:19;3.33;;;1.75;;
74510;SDS011;62991;50.040;18.400;2023-04-25T03:13:20;4.85;;;2.28;;
74510;SDS011;62991;50.040;18.400;2023-04-25T03:16:21;4.22;;;1.80;;
74510;SDS011;62991;50.040;18.400;2023-04-25T03:19:22;3.13;;;1.83;;
74510;SDS011;62991;50.040;18.400;2023-04-25T03:22:23;4.55;;;1.80;;
74510;SDS011;62991;50.040;18.400;2023-04-25T03:25:23;3.83;;;2.13;;
74510;SDS011;62991;50.040;18.400;2023-04-25T03:28:24;4.50;;;2.50;;
74510;SDS011;62991;50.040;18.400;2023-04-25T03:31:25;5.35;;;1.98;;
74510;SDS011;62991;50.040;18.400;2023-04-25T03:34:26;3.63;;;1.80;;
74510;SDS011;62991;50.040;18.400;2023-04-25T03:37:26;3.17;;;1.83;;
74510;SDS011;62991;50.040;18.400;2023-04-25T03:40:27;4.80;;;1.90;;
74510;SDS011;62991;50.040;18.400;2023-04-25T03:43:28;6.25;;;2.42;;
74510;SDS011;62991;50.040;18.400;2023-04-25T03:46:28;3.90;;;1.90;;
74510;SDS011;62991;50.040;18.400;2023-04-25T03:49:29;6.72;;;2.92;;
74510;SDS011;62991;50.040;18.400;2023-04-25T03:52:29;6.93;;;3.33;;
74510;SDS011;62991;50.040;18.400;2023-04-25T03:55:30;7.68;;;3.40;;
74510;SDS011;62991;50.040;18.400;2023-04-25T03:58:31;3.78;;;2.17;;
74510;SDS011;62991;50.040;18.400;2023-04-25T04:01:31;6.40;;;2.42;;
74510;SDS011;62991;50.040;18.400;2023-04-25T04:04:32;5.57;;;2.22;;
74510;SDS011;62991;50.040;18.400;2023-04-25T04:07:33;3.80;;;1.80;;
74510;SDS011;62991;50.040;18.400;2023-04-25T04:10:36;5.15;;;1.98;;
74510;SDS011;62991;50.040;18.400;2023-04-25T04:13:37;3.20;;;1.73;;
74510;SDS011;62991;50.040;18.400;2023-04-25T04:16:38;3.50;;;2.10;;
74510;SDS011;62991;50.040;18.400;2023-04-25T04:19:38;3.78;;;2.08;;
74510;SDS011;62991;50.040;18.400;2023-04-25T04:22:39;6.47;;;2.65;;
74510;SDS011;62991;50.040;18.400;2023-04-25T04:25:39;3.33;;;1.73;;
74510;SDS011;62991;50.040;18.400;2023-04-25T04:28:40;5.65;;;2.70;;
74510;SDS011;62991;50.040;18.400;2023-04-25T04:31:41;7.35;;;3.17;;
74510;SDS011;62991;50.040;18.400;2023-04-25T04:34:41;5.07;;;2.70;;
74510;SDS011;62991;50.040;18.400;2023-04-25T04:37:42;4.25;;;2.00;;
74510;SDS011;62991;50.040;18.400;2023-04-25T04:40:45;11.77;;;2.92;;
74510;SDS011;62991;50.040;18.400;2023-04-25T04:43:47;4.40;;;2.42;;
74510;SDS011;62991;50.040;18.400;2023-04-25T04:46:48;7.60;;;2.85;;
74510;SDS011;62991;50.040;18.400;2023-04-25T04:49:48;5.43;;;2.53;;
74510;SDS011;62991;50.040;18.400;2023-04-25T04:52:49;5.95;;;2.67;;
74510;SDS011;62991;50.040;18.400;2023-04-25T04:55:50;5.53;;;2.60;;
74510;SDS011;62991;50.040;18.400;2023-04-25T04:58:51;3.78;;;1.90;;
74510;SDS011;62991;50.040;18.400;2023-04-25T05:01:52;5.63;;;3.17;;
74510;SDS011;62991;50.040;18.400;2023-04-25T05:04:53;7.03;;;2.72;;
74510;SDS011;62991;50.040;18.400;2023-04-25T05:07:53;5.38;;;2.80;;
74510;SDS011;62991;50.040;18.400;2023-04-25T05:10:54;8.10;;;2.80;;
74510;SDS011;62991;50.040;18.400;2023-04-25T05:13:55;6.18;;;2.90;;
74510;SDS011;62991;50.040;18.400;2023-04-25T05:16:56;6.55;;;3.15;;
74510;SDS011;62991;50.040;18.400;2023-04-25T05:19:56;8.55;;;2.85;;
74510;SDS011;62991;50.040;18.400;2023-04-25T05:22:57;6.80;;;3.30;;
74510;SDS011;62991;50.040;18.400;2023-04-25T05:25:57;6.55;;;2.97;;
74510;SDS011;62991;50.040;18.400;2023-04-25T05:28:58;10.45;;;3.70;;
74510;SDS011;62991;50.040;18.400;2023-04-25T05:31:59;12.45;;;3.70;;
74510;SDS011;62991;50.040;18.400;2023-04-25T05:35:00;6.05;;;3.13;;
74510;SDS011;62991;50.040;18.400;2023-04-25T05:38:01;7.00;;;3.88;;
74510;SDS011;62991;50.040;18.400;2023-04-25T05:41:02;5.15;;;2.30;;
74510;SDS011;62991;50.040;18.400;2023-04-25T05:44:02;8.23;;;2.67;;
74510;SDS011;62991;50.040;18.400;2023-04-25T05:47:03;3.88;;;2.10;;
74510;SDS011;62991;50.040;18.400;2023-04-25T05:50:05;8.07;;;4.00;;
74510;SDS011;62991;50.040;18.400;2023-04-25T05:53:06;5.95;;;2.33;;
74510;SDS011;62991;50.040;18.400;2023-04-25T05:56:07;6.47;;;2.50;;
74510;SDS011;62991;50.040;18.400;2023-04-25T05:59:08;7.65;;;2.80;;
74510;SDS011;62991;50.040;18.400;2023-04-25T06:02:09;10.02;;;3.58;;
74510;SDS011;62991;50.040;18.400;2023-04-25T06:05:09;4.78;;;2.10;;
74510;SDS011;62991;50.040;18.400;2023-04-25T06:08:10;7.30;;;2.45;;
74510;SDS011;62991;50.040;18.400;2023-04-25T06:11:11;8.27;;;2.38;;
74510;SDS011;62991;50.040;18.400;2023-04-25T06:14:12;4.68;;;2.33;;
74510;SDS011;62991;50.040;18.400;2023-04-25T06:17:12;10.38;;;2.80;;
74510;SDS011;62991;50.040;18.400;2023-04-25T06:20:13;5.53;;;2.67;;
74510;SDS011;62991;50.040;18.400;2023-04-25T06:23:14;5.75;;;2.42;;
74510;SDS011;62991;50.040;18.400;2023-04-25T06:26:14;7.40;;;2.30;;
74510;SDS011;62991;50.040;18.400;2023-04-25T06:29:15;6.55;;;2.42;;
74510;SDS011;62991;50.040;18.400;2023-04-25T06:32:16;7.57;;;2.40;;
74510;SDS011;62991;50.040;18.400;2023-04-25T06:35:18;5.75;;;2.08;;
74510;SDS011;62991;50.040;18.400;2023-04-25T06:38:19;3.78;;;1.95;;
74510;SDS011;62991;50.040;18.400;2023-04-25T06:41:20;4.50;;;2.20;;
74510;SDS011;62991;50.040;18.400;2023-04-25T06:44:21;5.63;;;2.60;;
74510;SDS011;62991;50.040;18.400;2023-04-25T06:47:23;5.43;;;2.58;;
74510;SDS011;62991;50.040;18.400;2023-04-25T06:50:23;8.15;;;2.67;;
74510;SDS011;62991;50.040;18.400;2023-04-25T06:53:24;5.78;;;3.05;;
74510;SDS011;62991;50.040;18.400;2023-04-25T06:56:25;8.55;;;2.40;;
74510;SDS011;62991;50.040;18.400;2023-04-25T06:59:26;6.93;;;2.58;;
74510;SDS011;62991;50.040;18.400;2023-04-25T07:02:26;6.15;;;2.17;;
74510;SDS011;62991;50.040;18.400;2023-04-25T07:05:27;7.18;;;3.38;;
74510;SDS011;62991;50.040;18.400;2023-04-25T07:08:28;7.22;;;3.80;;
74510;SDS011;62991;50.040;18.400;2023-04-25T07:11:29;4.85;;;2.75;;
74510;SDS011;62991;50.040;18.400;2023-04-25T07:14:30;2.55;;;1.52;;
74510;SDS011;62991;50.040;18.400;2023-04-25T07:17:31;7.72;;;3.13;;
74510;SDS011;62991;50.040;18.400;2023-04-25T07:20:32;5.00;;;2.60;;
74510;SDS011;62991;50.040;18.400;2023-04-25T07:23:33;5.60;;;2.55;;
74510;SDS011;62991;50.040;18.400;2023-04-25T07:26:34;3.90;;;1.48;;
74510;SDS011;62991;50.040;18.400;2023-04-25T07:29:34;7.82;;;2.22;;
74510;SDS011;62991;50.040;18.400;2023-04-25T07:32:37;5.00;;;1.85;;
74510;SDS011;62991;50.040;18.400;2023-04-25T07:35:39;3.90;;;2.25;;
74510;SDS011;62991;50.040;18.400;2023-04-25T07:38:39;6.55;;;2.15;;
74510;SDS011;62991;50.040;18.400;2023-04-25T07:41:40;4.78;;;2.47;;
74510;SDS011;62991;50.040;18.400;2023-04-25T07:44:41;5.38;;;1.88;;
74510;SDS011;62991;50.040;18.400;2023-04-25T07:47:42;2.30;;;1.33;;
74510;SDS011;62991;50.040;18.400;2023-04-25T07:50:43;4.07;;;2.08;;
74510;SDS011;62991;50.040;18.400;2023-04-25T07:53:43;4.38;;;2.08;;
74510;SDS011;62991;50.040;18.400;2023-04-25T07:56:44;4.30;;;1.88;;
74510;SDS011;62991;50.040;18.400;2023-04-25T07:59:45;5.28;;;2.05;;
74510;SDS011;62991;50.040;18.400;2023-04-25T08:02:45;2.78;;;1.63;;
74510;SDS011;62991;50.040;18.400;2023-04-25T08:05:46;5.20;;;2.00;;
74510;SDS011;62991;50.040;18.400;2023-04-25T08:08:47;4.93;;;1.63;;
74510;SDS011;62991;50.040;18.400;2023-04-25T08:11:47;2.58;;;1.40;;
74510;SDS011;62991;50.040;18.400;2023-04-25T08:14:48;3.65;;;1.80;;
74510;SDS011;62991;50.040;18.400;2023-04-25T08:17:49;4.97;;;2.20;;
74510;SDS011;62991;50.040;18.400;2023-04-25T08:20:49;3.60;;;1.52;;
74510;SDS011;62991;50.040;18.400;2023-04-25T08:23:50;3.28;;;1.70;;
74510;SDS011;62991;50.040;18.400;2023-04-25T08:26:51;4.05;;;2.20;;
74510;SDS011;62991;50.040;18.400;2023-04-25T08:29:51;4.07;;;1.92;;
74510;SDS011;62991;50.040;18.400;2023-04-25T08:32:52;4.53;;;2.35;;
74510;SDS011;62991;50.040;18.400;2023-04-25T08:35:53;5.95;;;1.90;;
74510;SDS011;62991;50.040;18.400;2023-04-25T08:38:54;3.20;;;1.48;;
74510;SDS011;62991;50.040;18.400;2023-04-25T08:41:55;3.78;;;1.73;;
74510;SDS011;62991;50.040;18.400;2023-04-25T08:44:56;4.55;;;2.15;;
74510;SDS011;62991;50.040;18.400;2023-04-25T08:47:58;4.50;;;2.92;;
74510;SDS011;62991;50.040;18.400;2023-04-25T08:51:01;4.22;;;2.60;;
74510;SDS011;62991;50.040;18.400;2023-04-25T08:54:10;5.82;;;2.10;;
74510;SDS011;62991;50.040;18.400;2023-04-25T08:57:12;4.50;;;2.00;;
74510;SDS011;62991;50.040;18.400;2023-04-25T09:00:15;6.90;;;1.73;;
74510;SDS011;62991;50.040;18.400;2023-04-25T09:03:17;5.68;;;2.15;;
74510;SDS011;62991;50.040;18.400;2023-04-25T09:06:18;5.10;;;1.92;;
74510;SDS011;62991;50.040;18.400;2023-04-25T09:09:19;4.05;;;1.95;;
74510;SDS011;62991;50.040;18.400;2023-04-25T09:12:21;4.68;;;2.05;;
74510;SDS011;62991;50.040;18.400;2023-04-25T09:15:22;4.95;;;1.65;;
74510;SDS011;62991;50.040;18.400;2023-04-25T09:18:24;3.40;;;1.95;;
74510;SDS011;62991;50.040;18.400;2023-04-25T09:21:32;4.00;;;2.08;;
74510;SDS011;62991;50.040;18.400;2023-04-25T09:24:36;6.95;;;2.00;;
74510;SDS011;62991;50.040;18.400;2023-04-25T09:27:50;8.05;;;3.10;;
74510;SDS011;62991;50.040;18.400;2023-04-25T09:30:55;7.72;;;2.28;;
74510;SDS011;62991;50.040;18.400;2023-04-25T09:34:00;4.78;;;2.70;;
74510;SDS011;62991;50.040;18.400;2023-04-25T09:37:01;6.57;;;2.40;;
74510;SDS011;62991;50.040;18.400;2023-04-25T09:40:04;4.22;;;1.90;;
74510;SDS011;62991;50.040;18.400;2023-04-25T09:46:16;5.47;;;2.88;;
74510;SDS011;62991;50.040;18.400;2023-04-25T09:49:21;5.30;;;2.13;;
74510;SDS011;62991;50.040;18.400;2023-04-25T09:52:22;4.00;;;2.22;;
74510;SDS011;62991;50.040;18.400;2023-04-25T09:55:24;5.65;;;2.25;;
74510;SDS011;62991;50.040;18.400;2023-04-25T09:58:25;6.10;;;2.45;;
74510;SDS011;62991;50.040;18.400;2023-04-25T10:01:29;4.80;;;1.95;;
74510;SDS011;62991;50.040;18.400;2023-04-25T10:04:30;4.85;;;2.30;;
74510;SDS011;62991;50.040;18.400;2023-04-25T10:07:35;4.80;;;2.40;;
74510;SDS011;62991;50.040;18.400;2023-04-25T10:10:38;5.40;;;2.88;;
74510;SDS011;62991;50.040;18.400;2023-04-25T10:13:41;5.63;;;2.63;;
74510;SDS011;62991;50.040;18.400;2023-04-25T10:16:42;6.00;;;2.72;;
74510;SDS011;62991;50.040;18.400;2023-04-25T10:19:43;5.05;;;2.22;;
74510;SDS011;62991;50.040;18.400;2023-04-25T10:22:44;2.85;;;2.05;;
74510;SDS011;62991;50.040;18.400;2023-04-25T10:25:48;4.45;;;1.98;;
74510;SDS011;62991;50.040;18.400;2023-04-25T10:28:54;8.15;;;2.58;;
74510;SDS011;62991;50.040;18.400;2023-04-25T10:31:59;7.00;;;3.50;;
74510;SDS011;62991;50.040;18.400;2023-04-25T10:41:47;4.35;;;2.50;;
74510;SDS011;62991;50.040;18.400;2023-04-25T10:45:02;5.38;;;2.70;;
74510;SDS011;62991;50.040;18.400;2023-04-25T10:48:15;4.10;;;2.30;;
74510;SDS011;62991;50.040;18.400;2023-04-25T10:54:27;4.03;;;2.58;;
74510;SDS011;62991;50.040;18.400;2023-04-25T10:57:28;5.32;;;2.35;;
74510;SDS011;62991;50.040;18.400;2023-04-25T11:00:47;5.43;;;2.30;;
74510;SDS011;62991;50.040;18.400;2023-04-25T11:03:52;5.90;;;3.05;;
74510;SDS011;62991;50.040;18.400;2023-04-25T11:07:15;4.50;;;2.28;;
74510;SDS011;62991;50.040;18.400;2023-04-25T11:10:27;4.32;;;2.58;;
74510;SDS011;62991;50.040;18.400;2023-04-25T11:13:31;6.00;;;3.13;;
74510;SDS011;62991;50.040;18.400;2023-04-25T11:16:32;5.05;;;2.65;;
74510;SDS011;62991;50.040;18.400;2023-04-25T11:19:32;5.88;;;2.55;;
74510;SDS011;62991;50.040;18.400;2023-04-25T11:22:33;6.75;;;2.25;;
74510;SDS011;62991;50.040;18.400;2023-04-25T11:25:34;4.03;;;2.30;;
74510;SDS011;62991;50.040;18.400;2023-04-25T11:28:36;5.45;;;2.20;;
74510;SDS011;62991;50.040;18.400;2023-04-25T11:31:37;3.40;;;1.92;;
74510;SDS011;62991;50.040;18.400;2023-04-25T11:34:37;8.65;;;3.42;;
74510;SDS011;62991;50.040;18.400;2023-04-25T11:37:39;5.93;;;2.75;;
74510;SDS011;62991;50.040;18.400;2023-04-25T11:40:40;4.07;;;2.22;;
74510;SDS011;62991;50.040;18.400;2023-04-25T11:43:43;5.28;;;2.03;;
74510;SDS011;62991;50.040;18.400;2023-04-25T11:46:44;4.93;;;2.22;;
74510;SDS011;62991;50.040;18.400;2023-04-25T11:49:45;3.75;;;2.03;;
74510;SDS011;62991;50.040;18.400;2023-04-25T11:52:47;3.67;;;2.38;;
74510;SDS011;62991;50.040;18.400;2023-04-25T11:55:48;3.20;;;1.70;;
74510;SDS011;62991;50.040;18.400;2023-04-25T11:58:59;8.60;;;2.83;;
74510;SDS011;62991;50.040;18.400;2023-04-25T12:02:01;4.85;;;2.30;;
74510;SDS011;62991;50.040;18.400;2023-04-25T12:05:01;5.20;;;2.35;;
74510;SDS011;62991;50.040;18.400;2023-04-25T12:08:09;3.88;;;2.22;;
74510;SDS011;62991;50.040;18.400;2023-04-25T12:11:21;4.57;;;2.30;;
74510;SDS011;62991;50.040;18.400;2023-04-25T12:14:23;4.30;;;2.22;;
74510;SDS011;62991;50.040;18.400;2023-04-25T12:17:28;4.07;;;1.75;;
74510;SDS011;62991;50.040;18.400;2023-04-25T12:20:31;4.28;;;2.35;;
74510;SDS011;62991;50.040;18.400;2023-04-25T12:23:32;4.13;;;2.25;;
74510;SDS011;62991;50.040;18.400;2023-04-25T12:29:54;3.92;;;2.67;;
74510;SDS011;62991;50.040;18.400;2023-04-25T12:32:55;3.70;;;2.08;;
74510;SDS011;62991;50.040;18.400;2023-04-25T12:35:56;8.70;;;2.47;;
74510;SDS011;62991;50.040;18.400;2023-04-25T12:38:58;6.35;;;2.42;;
74510;SDS011;62991;50.040;18.400;2023-04-25T12:42:04;5.50;;;2.17;;
74510;SDS011;62991;50.040;18.400;2023-04-25T12:45:07;5.88;;;2.17;;
74510;SDS011;62991;50.040;18.400;2023-04-25T12:48:08;5.28;;;2.72;;
74510;SDS011;62991;50.040;18.400;2023-04-25T12:51:09;6.55;;;2.60;;
74510;SDS011;62991;50.040;18.400;2023-04-25T12:54:10;7.32;;;2.47;;
74510;SDS011;62991;50.040;18.400;2023-04-25T12:57:10;5.68;;;2.38;;
74510;SDS011;62991;50.040;18.400;2023-04-25T13:00:11;3.75;;;2.20;;
74510;SDS011;62991;50.040;18.400;2023-04-25T13:03:14;3.47;;;2.08;;
74510;SDS011;62991;50.040;18.400;2023-04-25T13:06:15;2.78;;;1.67;;
74510;SDS011;62991;50.040;18.400;2023-04-25T13:09:17;6.22;;;3.00;;
74510;SDS011;62991;50.040;18.400;2023-04-25T13:12:17;3.17;;;2.03;;
74510;SDS011;62991;50.040;18.400;2023-04-25T13:15:18;4.70;;;2.35;;
74510;SDS011;62991;50.040;18.400;2023-04-25T13:18:19;6.78;;;2.20;;
74510;SDS011;62991;50.040;18.400;2023-04-25T13:21:20;5.22;;;1.88;;
74510;SDS011;62991;50.040;18.400;2023-04-25T13:24:21;5.68;;;2.55;;
74510;SDS011;62991;50.040;18.400;2023-04-25T13:27:22;4.13;;;2.15;;
74510;SDS011;62991;50.040;18.400;2023-04-25T13:30:22;3.95;;;2.33;;
74510;SDS011;62991;50.040;18.400;2023-04-25T13:33:23;5.97;;;2.22;;
74510;SDS011;62991;50.040;18.400;2023-04-25T13:36:24;6.22;;;2.40;;
74510;SDS011;62991;50.040;18.400;2023-04-25T13:39:25;3.05;;;1.95;;
74510;SDS011;62991;50.040;18.400;2023-04-25T13:42:26;4.82;;;2.58;;
74510;SDS011;62991;50.040;18.400;2023-04-25T13:45:27;5.57;;;2.60;;
74510;SDS011;62991;50.040;18.400;2023-04-25T13:48:27;6.18;;;3.47;;
74510;SDS011;62991;50.040;18.400;2023-04-25T13:51:28;3.55;;;2.10;;
74510;SDS011;62991;50.040;18.400;2023-04-25T13:54:29;4.35;;;2.75;;
74510;SDS011;62991;50.040;18.400;2023-04-25T13:57:33;4.57;;;2.65;;
74510;SDS011;62991;50.040;18.400;2023-04-25T14:03:42;4.70;;;2.38;;
74510;SDS011;62991;50.040;18.400;2023-04-25T14:06:43;4.97;;;2.60;;
74510;SDS011;62991;50.040;18.400;2023-04-25T14:09:43;5.57;;;2.40;;
74510;SDS011;62991;50.040;18.400;2023-04-25T14:12:44;5.22;;;2.53;;
74510;SDS011;62991;50.040;18.400;2023-04-25T14:15:45;5.15;;;2.63;;
74510;SDS011;62991;50.040;18.400;2023-04-25T14:18:46;6.85;;;3.05;;
74510;SDS011;62991;50.040;18.400;2023-04-25T14:21:46;7.30;;;3.72;;
74510;SDS011;62991;50.040;18.400;2023-04-25T14:24:47;5.35;;;3.15;;
74510;SDS011;62991;50.040;18.400;2023-04-25T14:27:48;5.38;;;2.90;;
74510;SDS011;62991;50.040;18.400;2023-04-25T14:30:49;5.20;;;2.60;;
74510;SDS011;62991;50.040;18.400;2023-04-25T14:33:50;5.25;;;2.70;;
74510;SDS011;62991;50.040;18.400;2023-04-25T14:36:51;5.97;;;2.72;;
74510;SDS011;62991;50.040;18.400;2023-04-25T14:39:52;5.18;;;3.15;;
74510;SDS011;62991;50.040;18.400;2023-04-25T14:42:53;5.28;;;2.80;;
74510;SDS011;62991;50.040;18.400;2023-04-25T14:45:53;6.05;;;2.90;;
74510;SDS011;62991;50.040;18.400;2023-04-25T14:48:54;6.05;;;3.55;;
74510;SDS011;62991;50.040;18.400;2023-04-25T14:51:56;9.20;;;4.03;;
74510;SDS011;62991;50.040;18.400;2023-04-25T14:54:56;5.65;;;3.00;;
74510;SDS011;62991;50.040;18.400;2023-04-25T14:57:57;3.75;;;2.22;;
74510;SDS011;62991;50.040;18.400;2023-04-25T15:00:58;5.53;;;2.83;;
74510;SDS011;62991;50.040;18.400;2023-04-25T15:03:59;4.72;;;2.83;;
74510;SDS011;62991;50.040;18.400;2023-04-25T15:07:00;5.72;;;3.17;;
74510;SDS011;62991;50.040;18.400;2023-04-25T15:10:01;5.45;;;3.22;;
74510;SDS011;62991;50.040;18.400;2023-04-25T15:13:03;8.38;;;4.47;;
74510;SDS011;62991;50.040;18.400;2023-04-25T15:16:04;6.80;;;4.07;;
74510;SDS011;62991;50.040;18.400;2023-04-25T15:19:05;6.82;;;3.75;;
74510;SDS011;62991;50.040;18.400;2023-04-25T15:22:07;8.38;;;3.55;;
74510;SDS011;62991;50.040;18.400;2023-04-25T15:25:08;12.55;;;4.97;;
74510;SDS011;62991;50.040;18.400;2023-04-25T15:28:09;8.30;;;4.32;;
74510;SDS011;62991;50.040;18.400;2023-04-25T15:31:10;14.00;;;5.55;;
74510;SDS011;62991;50.040;18.400;2023-04-25T15:34:11;20.65;;;8.70;;
74510;SDS011;62991;50.040;18.400;2023-04-25T15:37:12;17.20;;;7.15;;
74510;SDS011;62991;50.040;18.400;2023-04-25T15:40:15;12.48;;;5.35;;
74510;SDS011;62991;50.040;18.400;2023-04-25T15:43:16;9.82;;;4.45;;
74510;SDS011;62991;50.040;18.400;2023-04-25T15:46:17;14.95;;;6.03;;
74510;SDS011;62991;50.040;18.400;2023-04-25T15:49:18;26.15;;;7.80;;
74510;SDS011;62991;50.040;18.400;2023-04-25T15:52:20;37.83;;;10.20;;
74510;SDS011;62991;50.040;18.400;2023-04-25T15:55:21;29.80;;;10.27;;
74510;SDS011;62991;50.040;18.400;2023-04-25T15:58:22;23.90;;;7.97;;
74510;SDS011;62991;50.040;18.400;2023-04-25T16:01:23;15.95;;;6.32;;
74510;SDS011;62991;50.040;18.400;2023-04-25T16:04:25;9.57;;;4.13;;
74510;SDS011;62991;50.040;18.400;2023-04-25T16:07:29;7.60;;;4.55;;
74510;SDS011;62991;50.040;18.400;2023-04-25T16:10:31;13.80;;;4.72;;
74510;SDS011;62991;50.040;18.400;2023-04-25T16:13:32;8.85;;;4.00;;
74510;SDS011;62991;50.040;18.400;2023-04-25T16:16:34;11.02;;;4.60;;
74510;SDS011;62991;50.040;18.400;2023-04-25T16:19:34;12.90;;;4.30;;
74510;SDS011;62991;50.040;18.400;2023-04-25T16:22:36;9.10;;;3.95;;
74510;SDS011;62991;50.040;18.400;2023-04-25T16:25:41;13.27;;;5.78;;
74510;SDS011;62991;50.040;18.400;2023-04-25T16:28:42;15.25;;;5.43;;
74510;SDS011;62991;50.040;18.400;2023-04-25T16:31:42;14.27;;;5.50;;
74510;SDS011;62991;50.040;18.400;2023-04-25T16:34:43;12.90;;;4.63;;
74510;SDS011;62991;50.040;18.400;2023-04-25T16:37:44;11.75;;;4.95;;
74510;SDS011;62991;50.040;18.400;2023-04-25T16:40:45;8.75;;;3.72;;
74510;SDS011;62991;50.040;18.400;2023-04-25T16:43:45;8.73;;;3.97;;
74510;SDS011;62991;50.040;18.400;2023-04-25T16:46:46;10.13;;;2.60;;
74510;SDS011;62991;50.040;18.400;2023-04-25T16:49:47;8.55;;;2.92;;
74510;SDS011;62991;50.040;18.400;2023-04-25T16:52:47;8.30;;;3.70;;
74510;SDS011;62991;50.040;18.400;2023-04-25T16:55:48;6.07;;;2.72;;
74510;SDS011;62991;50.040;18.400;2023-04-25T16:58:49;7.07;;;3.38;;
74510;SDS011;62991;50.040;18.400;2023-04-25T17:01:51;4.55;;;2.67;;
74510;SDS011;62991;50.040;18.400;2023-04-25T17:04:51;5.15;;;2.45;;
74510;SDS011;62991;50.040;18.400;2023-04-25T17:07:52;5.93;;;2.60;;
74510;SDS011;62991;50.040;18.400;2023-04-25T17:10:53;6.80;;;2.55;;
74510;SDS011;62991;50.040;18.400;2023-04-25T17:13:54;6.07;;;3.00;;
74510;SDS011;62991;50.040;18.400;2023-04-25T17:16:54;8.05;;;3.67;;
74510;SDS011;62991;50.040;18.400;2023-04-25T17:19:55;10.10;;;3.22;;
74510;SDS011;62991;50.040;18.400;2023-04-25T17:22:56;10.52;;;4.20;;
74510;SDS011;62991;50.040;18.400;2023-04-25T17:25:57;8.85;;;3.80;;
74510;SDS011;62991;50.040;18.400;2023-04-25T17:28:58;9.20;;;3.97;;
74510;SDS011;62991;50.040;18.400;2023-04-25T17:31:58;11.32;;;4.18;;
74510;SDS011;62991;50.040;18.400;2023-04-25T17:34:59;8.02;;;3.55;;
74510;SDS011;62991;50.040;18.400;2023-04-25T17:38:00;7.75;;;3.42;;
74510;SDS011;62991;50.040;18.400;2023-04-25T17:41:01;8.38;;;3.25;;
74510;SDS011;62991;50.040;18.400;2023-04-25T17:44:02;8.48;;;3.63;;
74510;SDS011;62991;50.040;18.400;2023-04-25T17:47:02;8.85;;;3.38;;
74510;SDS011;62991;50.040;18.400;2023-04-25T17:50:03;11.23;;;3.88;;
74510;SDS011;62991;50.040;18.400;2023-04-25T17:53:05;11.63;;;3.95;;
74510;SDS011;62991;50.040;18.400;2023-04-25T17:56:06;10.45;;;4.78;;
74510;SDS011;62991;50.040;18.400;2023-04-25T17:59:07;9.73;;;4.55;;
74510;SDS011;62991;50.040;18.400;2023-04-25T18:02:08;9.85;;;4.60;;
74510;SDS011;62991;50.040;18.400;2023-04-25T18:05:09;10.02;;;4.80;;
74510;SDS011;62991;50.040;18.400;2023-04-25T18:08:10;10.05;;;3.95;;
74510;SDS011;62991;50.040;18.400;2023-04-25T18:11:11;15.10;;;4.90;;
74510;SDS011;62991;50.040;18.400;2023-04-25T18:14:12;13.15;;;4.65;;
74510;SDS011;62991;50.040;18.400;2023-04-25T18:17:13;15.80;;;5.22;;